MI60 weather

Tannehill Airfield
Fife Lake, Michigan, United States

Public forecast

Using degrees Fahrenheit for public forecast. Weather courtesy of forecast.io.

Closest aviation weather report (METAR) to Tannehill Airfield

Closest report is Cherry Capital Airport, 14.7 nm (27.2 km) NW. Retrieved 2019/10/15 09:53 UTC (35 minutes ago):

KTVC 150953Z AUTO 00000KT 10SM BKN095 02/M01 A3002 RMK AO2 SLP171 T00171006

Closest aviation forecast (TAF) to Tannehill Airfield

Closest forecast is Cherry Capital Airport, 14.7 nm (27.2 km) NW. Retrieved 2019/10/15 06:36 UTC (4 hours ago):

TAF KTVC 150534Z 1506/1606 VRB03KT P6SM FEW200 FM151500 15010KT P6SM VCSH BKN070 FM152000 15011G19KT 6SM -SHRA BR OVC045 FM152300 17010KT 6SM -SHRA BR OVC035 FM160100 18008KT P6SM OVC018